createdAt,value
2018-07-07T00:00:13.876Z,0
2018-07-07T00:00:54.413Z,0
2018-07-07T00:01:34.786Z,0
2018-07-07T00:02:15.279Z,0
2018-07-07T00:02:55.714Z,0
2018-07-07T00:03:36.179Z,0
2018-07-07T00:04:16.553Z,0
2018-07-07T00:04:56.912Z,0
2018-07-07T00:05:37.388Z,0
2018-07-07T00:06:17.793Z,0
2018-07-07T00:06:58.198Z,0
2018-07-07T00:07:38.658Z,0
2018-07-07T00:08:19.058Z,0
2018-07-07T00:08:59.550Z,0
2018-07-07T00:09:39.973Z,0
2018-07-07T00:10:20.381Z,0
2018-07-07T00:11:00.937Z,0
2018-07-07T00:11:41.480Z,0
2018-07-07T00:12:21.994Z,0
2018-07-07T00:13:02.594Z,0
2018-07-07T00:13:46.136Z,0
2018-07-07T00:14:26.456Z,0
2018-07-07T00:15:06.945Z,0
2018-07-07T00:15:47.285Z,0
2018-07-07T00:16:27.692Z,0
2018-07-07T00:17:08.032Z,0
2018-07-07T00:17:48.463Z,0
2018-07-07T00:18:28.933Z,0
2018-07-07T00:19:09.308Z,0
2018-07-07T00:19:49.733Z,0
2018-07-07T00:20:30.268Z,0
2018-07-07T00:21:10.590Z,0
2018-07-07T00:21:51.078Z,0
2018-07-07T00:22:31.441Z,0
2018-07-07T00:23:11.878Z,0
2018-07-07T00:23:52.278Z,0
2018-07-07T00:24:32.609Z,0
2018-07-07T00:25:13.047Z,0
2018-07-07T00:25:53.554Z,0
2018-07-07T00:26:33.837Z,0
2018-07-07T00:27:14.371Z,0
2018-07-07T00:27:54.698Z,0
2018-07-07T00:28:35.071Z,0
2018-07-07T00:29:15.525Z,0
2018-07-07T00:29:55.938Z,0
2018-07-07T00:30:36.415Z,0
2018-07-07T00:31:16.878Z,0
2018-07-07T00:31:57.211Z,0
2018-07-07T00:32:37.575Z,0
2018-07-07T00:33:17.988Z,0
2018-07-07T00:33:58.404Z,0
2018-07-07T00:34:38.836Z,0
2018-07-07T00:35:19.310Z,0
2018-07-07T00:35:59.720Z,0
2018-07-07T00:36:40.085Z,0
2018-07-07T00:37:20.529Z,0
2018-07-07T00:38:00.895Z,0
2018-07-07T00:38:41.286Z,0
2018-07-07T00:39:21.656Z,0
2018-07-07T00:40:02.088Z,0
2018-07-07T00:40:42.511Z,0
2018-07-07T00:41:22.925Z,0
2018-07-07T00:42:03.278Z,0
2018-07-07T00:42:43.641Z,0
2018-07-07T00:43:24.088Z,0
2018-07-07T00:44:04.430Z,0
2018-07-07T00:44:44.852Z,0
2018-07-07T00:45:25.211Z,0
2018-07-07T00:46:05.616Z,0
2018-07-07T00:46:46.053Z,0
2018-07-07T00:47:26.494Z,0
2018-07-07T00:48:06.936Z,0
2018-07-07T00:48:47.286Z,0
2018-07-07T00:49:27.674Z,0
2018-07-07T00:50:08.090Z,0
2018-07-07T00:50:48.552Z,0
2018-07-07T00:51:29.000Z,0
2018-07-07T00:52:09.321Z,0
2018-07-07T00:52:49.743Z,0
2018-07-07T00:53:30.187Z,0
2018-07-07T00:54:10.535Z,0
2018-07-07T00:54:50.952Z,0
2018-07-07T00:55:31.333Z,0
2018-07-07T00:56:11.753Z,0
2018-07-07T00:56:52.155Z,0
2018-07-07T00:57:32.585Z,0
2018-07-07T00:58:12.952Z,0
2018-07-07T00:58:53.352Z,0
2018-07-07T00:59:33.754Z,0
2018-07-07T01:00:14.135Z,0
2018-07-07T01:00:54.565Z,0
2018-07-07T01:01:35.049Z,0
2018-07-07T01:02:15.373Z,0
2018-07-07T01:02:55.744Z,0
2018-07-07T01:03:36.178Z,0
2018-07-07T01:04:16.618Z,0
2018-07-07T01:04:56.966Z,0
2018-07-07T01:05:37.337Z,0
2018-07-07T01:06:17.785Z,0
2018-07-07T01:06:58.273Z,0
2018-07-07T01:07:38.665Z,0
2018-07-07T01:08:19.106Z,0
2018-07-07T01:08:59.495Z,0
2018-07-07T01:09:39.854Z,0
2018-07-07T01:10:20.300Z,0
2018-07-07T01:11:00.688Z,0
2018-07-07T01:11:41.079Z,0
2018-07-07T01:12:21.478Z,0
2018-07-07T01:13:01.949Z,0
2018-07-07T01:13:42.351Z,0
2018-07-07T01:14:22.777Z,0
2018-07-07T01:15:03.173Z,0
2018-07-07T01:15:43.552Z,0
2018-07-07T01:16:23.981Z,0
2018-07-07T01:17:04.348Z,0
2018-07-07T01:17:44.706Z,0
2018-07-07T01:18:25.149Z,0
2018-07-07T01:19:05.565Z,0
2018-07-07T01:19:45.950Z,0
2018-07-07T01:20:26.443Z,0
2018-07-07T01:21:06.823Z,0
2018-07-07T01:21:47.190Z,0
2018-07-07T01:22:27.645Z,0
2018-07-07T01:23:08.041Z,0
2018-07-07T01:23:48.411Z,0
2018-07-07T01:24:28.780Z,0
2018-07-07T01:25:09.180Z,0
2018-07-07T01:25:49.566Z,0
2018-07-07T01:26:30.012Z,0
2018-07-07T01:27:10.420Z,0
2018-07-07T01:27:50.862Z,0
2018-07-07T01:28:31.263Z,0
2018-07-07T01:29:11.665Z,0
2018-07-07T01:29:51.995Z,0
2018-07-07T01:30:32.453Z,0
2018-07-07T01:31:12.940Z,0
2018-07-07T01:31:53.250Z,0
2018-07-07T01:32:33.742Z,0
2018-07-07T01:33:14.084Z,0
2018-07-07T01:33:54.483Z,0
2018-07-07T01:34:34.902Z,0
2018-07-07T01:35:15.318Z,0
2018-07-07T01:35:55.706Z,0
2018-07-07T01:36:36.182Z,0
2018-07-07T01:37:16.580Z,0
2018-07-07T01:37:56.909Z,0
2018-07-07T01:38:37.384Z,0
2018-07-07T01:39:17.775Z,0
2018-07-07T01:39:58.237Z,0
2018-07-07T01:40:38.936Z,0
2018-07-07T01:41:19.336Z,0
2018-07-07T01:41:59.699Z,0
2018-07-07T01:42:40.209Z,0
2018-07-07T01:43:20.568Z,0
2018-07-07T01:44:00.951Z,0
2018-07-07T01:44:41.323Z,0
2018-07-07T01:45:21.803Z,0
2018-07-07T01:46:02.167Z,0
2018-07-07T01:46:42.591Z,0
2018-07-07T01:47:23.086Z,0
2018-07-07T01:48:03.413Z,0
2018-07-07T01:48:43.954Z,0
2018-07-07T01:49:24.224Z,0
2018-07-07T01:50:04.600Z,0
2018-07-07T01:50:45.081Z,0
2018-07-07T01:51:25.512Z,0
2018-07-07T01:52:05.939Z,0
2018-07-07T01:52:46.373Z,0
2018-07-07T01:53:26.756Z,0
2018-07-07T01:54:07.178Z,0
2018-07-07T01:54:47.522Z,0
2018-07-07T01:55:27.938Z,0
2018-07-07T01:56:08.359Z,0
2018-07-07T01:56:48.760Z,0
2018-07-07T01:57:29.194Z,0
2018-07-07T01:58:09.633Z,0
2018-07-07T01:58:50.097Z,0
2018-07-07T01:59:30.416Z,0
2018-07-07T02:00:10.876Z,0
2018-07-07T02:00:51.271Z,0
2018-07-07T02:01:31.656Z,0
2018-07-07T02:07:20.880Z,0
2018-07-07T02:08:01.281Z,0
2018-07-07T02:08:41.630Z,0
2018-07-07T02:09:22.042Z,0
2018-07-07T02:10:02.422Z,0
2018-07-07T02:10:42.938Z,0
2018-07-07T02:11:23.242Z,0
2018-07-07T02:12:03.642Z,0
2018-07-07T02:12:44.004Z,0
2018-07-07T02:13:24.374Z,0
2018-07-07T02:14:04.848Z,0
2018-07-07T02:14:45.190Z,0
2018-07-07T02:15:25.653Z,0
2018-07-07T02:16:06.034Z,0
2018-07-07T02:16:46.455Z,0
2018-07-07T02:17:26.803Z,0
2018-07-07T02:18:07.271Z,0
2018-07-07T02:18:47.677Z,0
2018-07-07T02:19:28.010Z,0
2018-07-07T02:20:08.410Z,0
2018-07-07T02:20:48.822Z,0
2018-07-07T02:21:29.235Z,0
2018-07-07T02:22:09.642Z,0
2018-07-07T02:22:50.056Z,0
2018-07-07T02:23:30.502Z,0
2018-07-07T02:24:10.878Z,0
2018-07-07T02:24:51.254Z,0
2018-07-07T02:25:31.689Z,0
2018-07-07T02:26:12.087Z,0
2018-07-07T02:26:52.490Z,0
2018-07-07T02:27:32.898Z,0
2018-07-07T02:28:13.339Z,0
2018-07-07T02:28:53.696Z,0
2018-07-07T02:29:34.154Z,0
2018-07-07T02:30:14.509Z,0
2018-07-07T02:30:54.966Z,0
2018-07-07T02:31:35.333Z,0
2018-07-07T02:32:15.771Z,0
2018-07-07T02:32:56.105Z,0
2018-07-07T02:33:36.625Z,0
2018-07-07T02:34:16.960Z,0
2018-07-07T02:34:57.319Z,0
2018-07-07T02:35:37.734Z,0
2018-07-07T02:36:18.239Z,0
2018-07-07T02:36:58.605Z,0
2018-07-07T02:37:38.973Z,0
2018-07-07T02:38:19.450Z,0
2018-07-07T02:38:59.860Z,0
2018-07-07T02:39:40.283Z,0
2018-07-07T02:40:20.603Z,0
2018-07-07T02:41:01.120Z,0
2018-07-07T02:41:41.429Z,0
2018-07-07T02:42:21.929Z,0
2018-07-07T02:43:02.265Z,0
2018-07-07T02:43:42.667Z,0
2018-07-07T02:44:23.066Z,0
2018-07-07T02:45:03.484Z,0
2018-07-07T02:45:43.981Z,0
2018-07-07T02:46:24.434Z,0
2018-07-07T02:47:04.721Z,0
2018-07-07T02:47:45.346Z,0
2018-07-07T02:48:25.590Z,0
2018-07-07T02:49:05.913Z,0
2018-07-07T02:49:46.358Z,0
2018-07-07T02:50:26.790Z,0
2018-07-07T02:51:07.259Z,0
2018-07-07T02:51:47.691Z,0
2018-07-07T02:52:28.204Z,0
2018-07-07T02:53:08.765Z,0
2018-07-07T02:53:49.098Z,0
2018-07-07T02:54:29.446Z,0
2018-07-07T02:55:09.830Z,0
2018-07-07T02:55:50.241Z,0
2018-07-07T02:56:30.640Z,0
2018-07-07T02:57:11.151Z,0
2018-07-07T02:57:51.504Z,0
2018-07-07T02:58:31.888Z,0
2018-07-07T02:59:12.294Z,0
2018-07-07T02:59:52.701Z,0
2018-07-07T03:00:33.188Z,0
2018-07-07T03:01:13.522Z,0
2018-07-07T03:01:53.937Z,0
2018-07-07T03:02:34.337Z,0
2018-07-07T03:03:14.799Z,0
2018-07-07T03:03:55.185Z,0
2018-07-07T03:04:35.534Z,0
2018-07-07T03:05:15.989Z,0
2018-07-07T03:05:56.448Z,0
2018-07-07T03:06:36.768Z,0
2018-07-07T03:07:17.249Z,0
2018-07-07T03:07:57.542Z,0
2018-07-07T03:08:38.093Z,0
2018-07-07T03:09:18.448Z,0
2018-07-07T03:09:58.834Z,0
2018-07-07T03:10:39.239Z,0
2018-07-07T03:11:19.684Z,0
2018-07-07T03:12:00.042Z,0
2018-07-07T03:12:40.545Z,0
2018-07-07T03:13:20.895Z,0
2018-07-07T03:14:01.335Z,0
2018-07-07T03:14:41.728Z,0
2018-07-07T03:15:22.115Z,0
2018-07-07T03:20:37.157Z,0
2018-07-07T03:21:17.610Z,0
2018-07-07T03:21:57.935Z,0
2018-07-07T03:22:38.343Z,0
2018-07-07T03:23:18.749Z,0
2018-07-07T03:23:59.190Z,0
2018-07-07T03:24:39.537Z,0
2018-07-07T03:25:19.959Z,0
2018-07-07T03:26:00.392Z,0
2018-07-07T03:26:40.819Z,0
2018-07-07T03:27:21.190Z,0
2018-07-07T03:28:01.580Z,0
2018-07-07T03:28:42.010Z,0
2018-07-07T03:29:22.423Z,0
2018-07-07T03:30:02.806Z,0
2018-07-07T03:30:43.230Z,0
2018-07-07T03:31:23.592Z,0
2018-07-07T03:32:03.978Z,0
2018-07-07T03:32:44.449Z,0
2018-07-07T03:33:24.843Z,0
2018-07-07T03:34:05.259Z,0
2018-07-07T03:34:45.662Z,0
2018-07-07T03:35:26.076Z,0
2018-07-07T03:36:06.413Z,0
2018-07-07T03:36:46.863Z,0
2018-07-07T03:37:27.261Z,0
2018-07-07T03:38:07.740Z,0
2018-07-07T03:38:48.184Z,0
2018-07-07T03:39:28.445Z,0
2018-07-07T03:40:08.835Z,0
2018-07-07T03:40:49.347Z,0
2018-07-07T03:41:29.914Z,0
2018-07-07T03:42:10.266Z,0
2018-07-07T03:42:50.627Z,0
2018-07-07T03:43:31.052Z,0
2018-07-07T03:44:11.466Z,0
2018-07-07T03:44:51.847Z,0
2018-07-07T03:45:32.329Z,0
2018-07-07T03:46:12.719Z,0
2018-07-07T03:46:53.054Z,0
2018-07-07T03:47:33.536Z,0
2018-07-07T03:48:13.898Z,0
2018-07-07T03:48:54.323Z,0
2018-07-07T03:49:34.686Z,0
2018-07-07T03:50:15.108Z,0
2018-07-07T03:50:55.518Z,0
2018-07-07T03:51:35.842Z,5
2018-07-07T03:52:16.345Z,5
2018-07-07T03:52:56.744Z,5
2018-07-07T03:53:37.143Z,5
2018-07-07T03:54:17.484Z,5
2018-07-07T03:54:57.896Z,5
2018-07-07T03:55:38.382Z,5
2018-07-07T03:56:18.734Z,5
2018-07-07T03:56:59.134Z,5
2018-07-07T03:57:39.609Z,5
2018-07-07T03:58:20.077Z,5
2018-07-07T03:59:00.485Z,5
2018-07-07T03:59:40.856Z,5
2018-07-07T04:00:21.306Z,5
2018-07-07T04:01:01.705Z,5
2018-07-07T04:01:42.105Z,5
2018-07-07T04:02:22.583Z,5
2018-07-07T04:03:03.001Z,5
2018-07-07T04:50:54.293Z,20
2018-07-07T04:51:34.566Z,25
2018-07-07T04:52:14.932Z,25
2018-07-07T04:52:55.379Z,25
2018-07-07T04:53:35.754Z,30
2018-07-07T04:54:16.169Z,30
2018-07-07T04:54:56.483Z,30
2018-07-07T04:55:37.033Z,35
2018-07-07T04:56:17.298Z,35
2018-07-07T04:56:57.762Z,35
2018-07-07T04:57:38.217Z,40
2018-07-07T04:58:18.640Z,50
2018-07-07T04:58:59.015Z,50
2018-07-07T04:59:39.386Z,50
2018-07-07T05:00:19.742Z,60
2018-07-07T05:01:00.216Z,75
2018-07-07T05:01:40.587Z,85
2018-07-07T05:02:21.001Z,85
2018-07-07T05:03:01.411Z,85
2018-07-07T05:03:41.828Z,90
2018-07-07T05:04:22.291Z,90
2018-07-07T05:05:02.716Z,95
2018-07-07T05:05:43.098Z,80
2018-07-07T05:06:23.456Z,90
2018-07-07T05:07:03.852Z,90
2018-07-07T05:07:44.234Z,85
2018-07-07T05:08:24.690Z,85
2018-07-07T05:09:05.235Z,85
2018-07-07T05:09:46.004Z,90
2018-07-07T05:10:26.239Z,95
2018-07-07T05:11:06.704Z,100
2018-07-07T05:11:47.166Z,110
2018-07-07T05:12:27.518Z,125
2018-07-07T05:13:08.041Z,130
2018-07-07T05:13:48.432Z,145
2018-07-07T05:14:28.901Z,160
2018-07-07T05:15:09.250Z,165
2018-07-07T05:15:49.829Z,175
2018-07-07T05:16:30.229Z,180
2018-07-07T05:17:10.759Z,185
2018-07-07T05:17:51.101Z,180
2018-07-07T05:18:31.568Z,180
2018-07-07T05:19:12.017Z,180
2018-07-07T05:19:52.337Z,180
2018-07-07T05:20:32.792Z,160
2018-07-07T05:21:13.173Z,140
2018-07-07T05:21:53.614Z,125
2018-07-07T05:22:33.956Z,115
2018-07-07T05:23:14.465Z,125
2018-07-07T05:23:54.846Z,120
2018-07-07T05:24:35.155Z,145
2018-07-07T05:25:15.594Z,180
2018-07-07T05:25:56.055Z,200
2018-07-07T05:26:36.449Z,200
2018-07-07T05:27:19.844Z,205
2018-07-07T05:28:00.264Z,210
2018-07-07T05:28:40.726Z,205
2018-07-07T05:29:21.115Z,200
2018-07-07T05:30:01.507Z,200
2018-07-07T05:30:41.964Z,180
2018-07-07T05:31:22.327Z,185
2018-07-07T05:32:02.792Z,165
2018-07-07T05:32:43.199Z,185
2018-07-07T05:33:23.656Z,195
2018-07-07T05:36:10.577Z,215
2018-07-07T05:36:50.795Z,210
2018-07-07T05:37:31.167Z,200
2018-07-07T05:38:11.566Z,190
2018-07-07T05:38:51.972Z,160
2018-07-07T05:39:32.379Z,195
2018-07-07T05:40:12.789Z,120
2018-07-07T05:40:53.235Z,180
2018-07-07T05:41:33.586Z,115
2018-07-07T05:42:13.984Z,110
2018-07-07T05:42:54.434Z,105
2018-07-07T05:43:34.788Z,130
2018-07-07T05:44:15.269Z,105
2018-07-07T05:44:55.685Z,105
2018-07-07T05:45:36.046Z,185
2018-07-07T05:46:16.459Z,115
2018-07-07T05:46:56.954Z,225
2018-07-07T05:47:37.306Z,165
2018-07-07T05:48:17.738Z,220
2018-07-07T05:48:58.144Z,135
2018-07-07T05:49:38.620Z,135
2018-07-07T05:50:19.018Z,220
2018-07-07T05:50:59.403Z,220
2018-07-07T05:51:39.878Z,145
2018-07-07T05:52:20.234Z,175
2018-07-07T05:53:00.640Z,225
2018-07-07T05:53:41.083Z,220
2018-07-07T05:54:21.424Z,225
2018-07-07T05:55:01.849Z,205
2018-07-07T05:55:42.239Z,175
2018-07-07T05:56:22.681Z,165
2018-07-07T05:57:03.186Z,225
2018-07-07T05:57:43.618Z,235
2018-07-07T05:58:23.846Z,200
2018-07-07T05:59:04.318Z,190
2018-07-07T05:59:44.758Z,180
2018-07-07T06:00:25.123Z,175
2018-07-07T06:01:05.507Z,155
2018-07-07T06:01:45.955Z,245
2018-07-07T06:02:26.310Z,140
2018-07-07T06:03:06.786Z,130
2018-07-07T06:03:47.204Z,125
2018-07-07T06:04:27.598Z,120
2018-07-07T06:05:08.028Z,95
2018-07-07T06:05:48.455Z,80
2018-07-07T06:06:28.837Z,185
2018-07-07T06:07:09.297Z,75
2018-07-07T06:07:49.748Z,195
2018-07-07T06:08:30.197Z,155
2018-07-07T06:09:10.805Z,90
2018-07-07T06:09:51.169Z,100
2018-07-07T06:10:31.562Z,100
2018-07-07T06:11:12.039Z,100
2018-07-07T06:11:52.400Z,90
2018-07-07T06:14:16.000Z,60
2018-07-07T06:14:56.422Z,60
2018-07-07T06:15:36.783Z,65
2018-07-07T06:16:17.264Z,65
2018-07-07T06:16:58.376Z,65
2018-07-07T06:17:38.799Z,70
2018-07-07T06:18:19.214Z,85
2018-07-07T06:18:59.627Z,75
2018-07-07T06:19:40.023Z,75
2018-07-07T06:20:20.469Z,275
2018-07-07T06:21:01.260Z,95
2018-07-07T06:21:41.721Z,85
2018-07-07T06:22:22.126Z,190
2018-07-07T06:23:02.579Z,130
2018-07-07T06:23:42.971Z,310
2018-07-07T06:24:23.469Z,120
2018-07-07T06:25:03.829Z,105
2018-07-07T06:25:44.176Z,105
2018-07-07T06:26:24.699Z,110
2018-07-07T06:27:05.144Z,110
2018-07-07T06:27:45.754Z,100
2018-07-07T06:28:26.098Z,95
2018-07-07T06:29:06.562Z,95
2018-07-07T06:29:47.319Z,95
2018-07-07T06:30:27.853Z,85
2018-07-07T06:31:08.114Z,95
2018-07-07T06:31:48.539Z,135
2018-07-07T06:32:28.945Z,105
2018-07-07T06:33:09.456Z,100
2018-07-07T06:35:37.580Z,130
2018-07-07T06:36:18.037Z,145
2018-07-07T06:36:58.534Z,160
2018-07-07T06:37:38.911Z,140
2018-07-07T06:38:19.354Z,590
2018-07-07T06:38:59.728Z,130
2018-07-07T06:39:40.221Z,120
2018-07-07T06:40:20.652Z,110
2018-07-07T06:41:01.034Z,130
2018-07-07T06:41:41.459Z,660
2018-07-07T06:42:21.876Z,140
2018-07-07T06:43:02.357Z,125
2018-07-07T06:43:42.731Z,135
2018-07-07T06:44:23.136Z,175
2018-07-07T06:45:03.511Z,135
2018-07-07T06:45:43.938Z,135
2018-07-07T06:46:24.325Z,170
2018-07-07T06:47:04.794Z,725
2018-07-07T06:47:45.230Z,150
2018-07-07T06:48:25.686Z,155
2018-07-07T06:49:06.006Z,615
2018-07-07T06:49:46.685Z,295
2018-07-07T06:50:26.922Z,735
2018-07-07T06:51:07.354Z,175
2018-07-07T06:51:47.770Z,190
2018-07-07T06:52:28.214Z,590
2018-07-07T06:53:08.670Z,605
2018-07-07T06:53:49.166Z,550
2018-07-07T06:54:29.535Z,370
2018-07-07T06:55:09.928Z,455
2018-07-07T06:55:50.292Z,460
2018-07-07T06:56:30.776Z,435
2018-07-07T06:57:11.161Z,225
2018-07-07T06:57:51.569Z,330
2018-07-07T06:58:31.963Z,400
2018-07-07T07:05:17.505Z,485
2018-07-07T07:05:57.908Z,515
2018-07-07T07:06:38.488Z,535
2018-07-07T07:07:18.842Z,540
2018-07-07T07:07:59.252Z,520
2018-07-07T07:08:39.636Z,510
2018-07-07T07:09:20.081Z,510
2018-07-07T07:10:00.520Z,505
2018-07-07T07:10:40.898Z,490
2018-07-07T07:11:21.407Z,475
2018-07-07T07:12:01.866Z,490
2018-07-07T07:12:42.136Z,485
2018-07-07T07:13:22.607Z,485
2018-07-07T07:14:02.974Z,485
2018-07-07T07:14:43.436Z,490
2018-07-07T07:15:23.848Z,475
2018-07-07T07:16:04.354Z,480
2018-07-07T07:16:44.814Z,480
2018-07-07T07:17:25.136Z,470
2018-07-07T07:18:05.815Z,470
2018-07-07T07:18:48.948Z,480
2018-07-07T07:19:29.406Z,480
2018-07-07T07:20:09.731Z,475
2018-07-07T07:20:50.188Z,490
2018-07-07T07:26:35.186Z,455
2018-07-07T07:27:15.769Z,445
2018-07-07T07:27:56.102Z,435
2018-07-07T07:28:36.623Z,400
2018-07-07T07:29:16.931Z,350
2018-07-07T07:29:57.445Z,420
2018-07-07T07:30:37.865Z,345
2018-07-07T07:31:18.289Z,330
2018-07-07T07:31:58.715Z,250
2018-07-07T07:32:39.118Z,345
2018-07-07T07:33:19.611Z,340
2018-07-07T07:33:59.976Z,255
2018-07-07T07:34:40.440Z,245
2018-07-07T07:35:20.847Z,275
2018-07-07T07:36:01.240Z,280
2018-07-07T07:36:41.729Z,275
2018-07-07T07:37:22.046Z,260
2018-07-07T07:38:02.592Z,235
2018-07-07T07:38:43.166Z,220
2018-07-07T07:39:23.714Z,205
2018-07-07T07:40:04.278Z,245
2018-07-07T07:40:44.649Z,245
2018-07-07T07:41:25.037Z,245
2018-07-07T07:42:05.493Z,235
2018-07-07T07:42:45.861Z,195
2018-07-07T07:43:26.274Z,185
2018-07-07T07:44:06.764Z,180
2018-07-07T07:44:47.303Z,175
2018-07-07T07:45:27.725Z,170
2018-07-07T07:46:08.144Z,165
2018-07-07T07:46:48.553Z,165
2018-07-07T07:47:29.104Z,160
2018-07-07T07:48:09.564Z,165
2018-07-07T07:48:49.865Z,160
2018-07-07T07:49:30.286Z,175
2018-07-07T07:50:10.747Z,165
2018-07-07T07:50:51.102Z,170
2018-07-07T07:51:31.539Z,150
2018-07-07T07:52:12.266Z,140
2018-07-07T07:52:52.680Z,140
2018-07-07T07:53:32.962Z,140
2018-07-07T07:54:13.342Z,140
2018-07-07T07:54:53.784Z,140
2018-07-07T07:55:34.315Z,140
2018-07-07T07:56:14.988Z,185
2018-07-07T07:56:55.102Z,160
2018-07-07T07:57:35.484Z,155
2018-07-07T07:58:15.906Z,165
2018-07-07T07:58:56.399Z,190
2018-07-07T07:59:36.800Z,195
2018-07-07T08:00:17.225Z,185
2018-07-07T08:00:57.629Z,160
2018-07-07T08:01:38.047Z,180
2018-07-07T08:02:18.509Z,175
2018-07-07T08:02:58.913Z,175
2018-07-07T08:03:39.339Z,175
2018-07-07T08:04:19.792Z,170
2018-07-07T08:05:00.287Z,175
2018-07-07T08:05:40.740Z,170
2018-07-07T08:06:21.153Z,160
2018-07-07T08:07:01.628Z,170
2018-07-07T08:07:41.963Z,165
2018-07-07T08:08:22.377Z,170
2018-07-07T08:09:02.872Z,165
2018-07-07T08:09:43.529Z,165
2018-07-07T08:10:24.076Z,160
2018-07-07T08:11:04.977Z,155
2018-07-07T08:11:45.236Z,155
2018-07-07T08:12:25.644Z,150
2018-07-07T08:14:44.352Z,140
2018-07-07T08:15:24.762Z,140
2018-07-07T08:16:05.151Z,140
2018-07-07T08:16:45.578Z,140
2018-07-07T08:17:26.155Z,140
2018-07-07T08:18:06.560Z,140
2018-07-07T08:18:46.972Z,135
2018-07-07T08:19:27.429Z,140
2018-07-07T08:20:07.818Z,140
2018-07-07T08:20:48.297Z,135
2018-07-07T08:21:28.659Z,135
2018-07-07T08:22:09.154Z,135
2018-07-07T08:22:49.566Z,135
2018-07-07T08:23:30.031Z,135
2018-07-07T08:24:10.399Z,135
2018-07-07T08:24:50.811Z,120
2018-07-07T08:25:31.277Z,130
2018-07-07T08:26:11.745Z,115
2018-07-07T08:26:52.259Z,125
2018-07-07T08:27:32.654Z,125
2018-07-07T08:28:13.076Z,130
2018-07-07T08:28:53.656Z,125
2018-07-07T08:29:34.362Z,125
2018-07-07T08:30:14.766Z,120
2018-07-07T08:30:55.161Z,125
2018-07-07T08:31:35.586Z,120
2018-07-07T08:32:16.021Z,125
2018-07-07T08:32:56.440Z,120
2018-07-07T08:33:37.239Z,120
2018-07-07T08:34:17.741Z,120
2018-07-07T08:34:58.267Z,120
2018-07-07T08:35:38.702Z,115
2018-07-07T08:36:19.033Z,115
2018-07-07T08:36:59.379Z,115
2018-07-07T08:37:39.836Z,110
2018-07-07T08:38:20.219Z,110
2018-07-07T08:39:00.687Z,110
2018-07-07T08:39:41.160Z,110
2018-07-07T08:40:21.571Z,110
2018-07-07T08:41:01.933Z,105
2018-07-07T08:41:42.383Z,105
2018-07-07T08:42:22.760Z,105
2018-07-07T08:43:03.215Z,105
2018-07-07T08:43:43.641Z,100
2018-07-07T08:44:24.103Z,100
2018-07-07T08:45:04.546Z,100
2018-07-07T08:45:44.866Z,100
2018-07-07T08:46:25.341Z,100
2018-07-07T08:47:05.692Z,100
2018-07-07T08:47:46.191Z,95
2018-07-07T08:48:26.614Z,95
2018-07-07T08:49:07.049Z,95
2018-07-07T08:49:47.410Z,95
2018-07-07T08:50:27.813Z,95
2018-07-07T08:51:08.625Z,95
2018-07-07T08:51:49.113Z,95
2018-07-07T08:52:32.309Z,95
2018-07-07T08:53:12.753Z,95
2018-07-07T08:53:53.178Z,90
2018-07-07T08:54:33.601Z,90
2018-07-07T08:55:13.953Z,90
2018-07-07T08:55:54.458Z,90
2018-07-07T08:56:34.888Z,90
2018-07-07T08:57:15.393Z,90
2018-07-07T08:57:55.822Z,85
2018-07-07T08:58:36.228Z,85
2018-07-07T08:59:16.567Z,85
2018-07-07T08:59:57.013Z,85
2018-07-07T09:00:38.234Z,85
2018-07-07T09:01:18.646Z,85
2018-07-07T09:01:59.037Z,85
2018-07-07T09:02:39.524Z,85
2018-07-07T09:03:19.910Z,85
2018-07-07T09:04:00.404Z,85
2018-07-07T09:04:40.819Z,85
2018-07-07T09:05:21.294Z,85
2018-07-07T09:06:01.733Z,85
2018-07-07T09:06:42.173Z,85
2018-07-07T09:07:22.590Z,85
2018-07-07T09:08:03.963Z,80
2018-07-07T09:08:44.360Z,80
2018-07-07T09:09:24.851Z,80
2018-07-07T09:10:05.768Z,80
2018-07-07T09:10:46.133Z,80
2018-07-07T09:11:26.504Z,80
2018-07-07T09:12:07.037Z,80
2018-07-07T09:12:47.431Z,80
2018-07-07T09:13:27.849Z,75
2018-07-07T09:14:08.291Z,75
2018-07-07T09:14:48.729Z,75
2018-07-07T09:15:29.124Z,75
2018-07-07T09:16:09.899Z,75
2018-07-07T09:16:50.339Z,75
2018-07-07T09:17:31.351Z,75
2018-07-07T09:18:11.790Z,75
2018-07-07T09:18:52.359Z,75
2018-07-07T09:19:32.793Z,75
2018-07-07T09:20:13.865Z,75
2018-07-07T09:20:54.333Z,75
2018-07-07T09:21:34.801Z,75
2018-07-07T09:22:16.008Z,75
2018-07-07T09:22:56.013Z,75
2018-07-07T09:23:36.461Z,75
2018-07-07T09:24:16.884Z,75
2018-07-07T09:24:57.536Z,75
2018-07-07T09:25:37.861Z,75
2018-07-07T09:26:18.241Z,75
2018-07-07T09:26:58.818Z,75
2018-07-07T09:27:39.229Z,70
2018-07-07T09:28:19.725Z,70
2018-07-07T09:29:00.139Z,70
2018-07-07T09:29:40.633Z,70
2018-07-07T09:30:21.077Z,70
2018-07-07T09:31:01.418Z,70
2018-07-07T09:31:41.995Z,70
2018-07-07T09:32:22.312Z,70
2018-07-07T09:33:02.716Z,70
2018-07-07T09:33:43.174Z,70
2018-07-07T09:34:23.628Z,70
2018-07-07T09:35:03.986Z,70
2018-07-07T09:35:44.472Z,70
2018-07-07T09:36:24.895Z,70
2018-07-07T09:37:05.353Z,70
2018-07-07T09:37:45.820Z,70
2018-07-07T09:38:26.377Z,70
2018-07-07T09:39:06.763Z,70
2018-07-07T09:39:47.143Z,70
2018-07-07T09:40:27.624Z,70
2018-07-07T09:41:08.196Z,70
2018-07-07T09:41:48.451Z,70
2018-07-07T09:42:28.867Z,70
2018-07-07T09:43:09.341Z,70
2018-07-07T09:43:49.786Z,70
2018-07-07T09:44:30.252Z,70
2018-07-07T09:45:10.627Z,70
2018-07-07T09:45:51.426Z,70
2018-07-07T09:46:31.860Z,70
2018-07-07T09:47:12.387Z,70
2018-07-07T09:47:52.859Z,70
2018-07-07T09:48:33.281Z,70
2018-07-07T09:49:13.729Z,70
2018-07-07T09:49:54.236Z,70
2018-07-07T09:50:34.542Z,70
2018-07-07T09:51:14.946Z,70
2018-07-07T09:51:55.382Z,70
2018-07-07T09:52:35.838Z,70
2018-07-07T09:53:16.214Z,70
2018-07-07T09:53:56.607Z,70
2018-07-07T09:54:37.142Z,70
2018-07-07T09:55:17.517Z,70
2018-07-07T09:55:57.954Z,70
2018-07-07T09:56:38.770Z,70
2018-07-07T09:57:19.293Z,70
2018-07-07T09:57:59.709Z,70
2018-07-07T09:58:40.127Z,70
2018-07-07T09:59:20.559Z,70
2018-07-07T10:00:01.054Z,70
2018-07-07T10:00:41.429Z,70
2018-07-07T10:01:21.897Z,70
2018-07-07T10:02:02.241Z,70
2018-07-07T10:02:42.649Z,65
2018-07-07T10:03:23.189Z,65
2018-07-07T10:04:03.699Z,70
2018-07-07T10:50:40.568Z,60
2018-07-07T10:51:21.081Z,60
2018-07-07T10:52:01.376Z,60
2018-07-07T10:52:42.264Z,60
2018-07-07T10:53:22.710Z,60
2018-07-07T10:54:03.146Z,60
2018-07-07T10:54:43.812Z,60
2018-07-07T10:55:24.225Z,60
2018-07-07T10:56:04.637Z,60
2018-07-07T10:56:45.058Z,60
2018-07-07T10:57:25.496Z,60
2018-07-07T10:58:05.972Z,60
2018-07-07T10:58:46.530Z,60
2018-07-07T10:59:26.803Z,60
2018-07-07T11:00:07.215Z,60
2018-07-07T11:00:47.698Z,60
2018-07-07T11:01:28.073Z,60
2018-07-07T11:02:08.573Z,60
2018-07-07T11:02:48.968Z,60
2018-07-07T11:03:29.405Z,60
2018-07-07T11:04:09.909Z,60
2018-07-07T11:04:50.931Z,60
2018-07-07T11:05:31.307Z,60
2018-07-07T11:06:12.512Z,60
2018-07-07T11:06:52.947Z,65
2018-07-07T11:07:33.649Z,60
2018-07-07T11:08:14.036Z,60
2018-07-07T11:08:54.457Z,60
2018-07-07T11:09:34.991Z,60
2018-07-07T11:10:15.433Z,60
2018-07-07T11:10:55.924Z,60
2018-07-07T11:11:36.286Z,60
2018-07-07T11:12:16.753Z,60
2018-07-07T11:12:57.150Z,60
2018-07-07T11:13:37.648Z,60
2018-07-07T11:14:18.031Z,60
2018-07-07T11:14:58.630Z,60
2018-07-07T11:15:39.076Z,60
2018-07-07T11:16:19.582Z,60
2018-07-07T11:16:59.985Z,60
2018-07-07T11:17:40.432Z,60
2018-07-07T11:18:20.869Z,60
2018-07-07T11:19:01.388Z,60
2018-07-07T11:19:41.724Z,60
2018-07-07T11:20:22.178Z,60
2018-07-07T11:21:02.783Z,60
2018-07-07T11:21:43.291Z,60
2018-07-07T11:22:23.714Z,60
2018-07-07T11:23:04.103Z,60
2018-07-07T11:23:44.626Z,60
2018-07-07T11:24:25.065Z,60
2018-07-07T11:25:06.157Z,60
2018-07-07T11:25:46.536Z,60
2018-07-07T11:26:26.944Z,60
2018-07-07T11:27:07.356Z,60
2018-07-07T11:27:47.794Z,60
2018-07-07T11:28:28.295Z,60
2018-07-07T11:29:08.687Z,60
2018-07-07T11:29:49.182Z,60
2018-07-07T11:30:29.467Z,60
2018-07-07T11:31:09.966Z,60
2018-07-07T11:31:50.730Z,60
2018-07-07T11:32:31.166Z,60
2018-07-07T11:33:11.583Z,60
2018-07-07T11:33:51.957Z,60
2018-07-07T11:34:32.394Z,55
2018-07-07T11:35:13.084Z,55
2018-07-07T11:35:53.544Z,55
2018-07-07T11:36:34.135Z,60
2018-07-07T11:37:14.427Z,55
2018-07-07T11:37:54.987Z,55
2018-07-07T11:38:35.274Z,60
2018-07-07T11:39:15.758Z,60
2018-07-07T11:39:56.260Z,60